sensor_id;sensor_type;location;lat;lon;timestamp;P1;durP1;ratioP1;P2;durP2;ratioP2
71475;SDS011;59286;59.274;17.974;2024-02-21T00:02:04;16.02;;;10.13;;
71475;SDS011;59286;59.274;17.974;2024-02-21T00:04:30;13.35;;;9.40;;
71475;SDS011;59286;59.274;17.974;2024-02-21T00:06:55;18.13;;;9.88;;
71475;SDS011;59286;59.274;17.974;2024-02-21T00:09:20;15.50;;;10.90;;
71475;SDS011;59286;59.274;17.974;2024-02-21T00:11:45;16.60;;;9.70;;
71475;SDS011;59286;59.274;17.974;2024-02-21T00:14:10;9.73;;;8.73;;
71475;SDS011;59286;59.274;17.974;2024-02-21T00:16:36;9.43;;;8.02;;
71475;SDS011;59286;59.274;17.974;2024-02-21T00:19:01;14.13;;;9.02;;
71475;SDS011;59286;59.274;17.974;2024-02-21T00:21:26;12.88;;;9.07;;
71475;SDS011;59286;59.274;17.974;2024-02-21T00:23:51;9.93;;;8.00;;
71475;SDS011;59286;59.274;17.974;2024-02-21T00:26:17;10.40;;;7.97;;
71475;SDS011;59286;59.274;17.974;2024-02-21T00:28:42;9.32;;;7.15;;
71475;SDS011;59286;59.274;17.974;2024-02-21T00:31:07;14.43;;;9.10;;
71475;SDS011;59286;59.274;17.974;2024-02-21T00:33:32;11.30;;;7.88;;
71475;SDS011;59286;59.274;17.974;2024-02-21T00:35:57;11.30;;;7.88;;
71475;SDS011;59286;59.274;17.974;2024-02-21T00:38:23;10.77;;;6.88;;
71475;SDS011;59286;59.274;17.974;2024-02-21T00:40:48;11.48;;;8.23;;
71475;SDS011;59286;59.274;17.974;2024-02-21T00:43:13;11.68;;;7.63;;
71475;SDS011;59286;59.274;17.974;2024-02-21T00:45:38;13.98;;;7.25;;
71475;SDS011;59286;59.274;17.974;2024-02-21T00:48:04;13.20;;;7.43;;
71475;SDS011;59286;59.274;17.974;2024-02-21T00:50:29;11.95;;;7.22;;
71475;SDS011;59286;59.274;17.974;2024-02-21T00:52:54;15.32;;;8.57;;
71475;SDS011;59286;59.274;17.974;2024-02-21T00:55:20;6.53;;;5.28;;
71475;SDS011;59286;59.274;17.974;2024-02-21T00:57:45;14.65;;;6.47;;
71475;SDS011;59286;59.274;17.974;2024-02-21T01:00:10;20.33;;;8.57;;
71475;SDS011;59286;59.274;17.974;2024-02-21T01:02:35;7.65;;;5.50;;
71475;SDS011;59286;59.274;17.974;2024-02-21T01:05:01;20.27;;;8.88;;
71475;SDS011;59286;59.274;17.974;2024-02-21T01:07:26;22.45;;;9.05;;
71475;SDS011;59286;59.274;17.974;2024-02-21T01:09:52;11.20;;;6.30;;
71475;SDS011;59286;59.274;17.974;2024-02-21T01:12:17;7.55;;;5.65;;
71475;SDS011;59286;59.274;17.974;2024-02-21T01:14:43;27.73;;;8.35;;
71475;SDS011;59286;59.274;17.974;2024-02-21T01:17:08;12.00;;;6.75;;
71475;SDS011;59286;59.274;17.974;2024-02-21T01:19:33;25.52;;;8.25;;
71475;SDS011;59286;59.274;17.974;2024-02-21T01:21:58;21.80;;;7.22;;
71475;SDS011;59286;59.274;17.974;2024-02-21T01:24:23;73.00;;;11.73;;
71475;SDS011;59286;59.274;17.974;2024-02-21T01:26:49;74.70;;;10.48;;
71475;SDS011;59286;59.274;17.974;2024-02-21T01:29:14;46.35;;;9.88;;
71475;SDS011;59286;59.274;17.974;2024-02-21T01:31:39;63.72;;;12.88;;
71475;SDS011;59286;59.274;17.974;2024-02-21T01:34:04;39.58;;;8.98;;
71475;SDS011;59286;59.274;17.974;2024-02-21T01:36:30;52.00;;;9.43;;
71475;SDS011;59286;59.274;17.974;2024-02-21T01:38:55;26.58;;;8.52;;
71475;SDS011;59286;59.274;17.974;2024-02-21T01:41:20;51.95;;;11.45;;
71475;SDS011;59286;59.274;17.974;2024-02-21T01:43:45;110.65;;;15.18;;
71475;SDS011;59286;59.274;17.974;2024-02-21T01:46:10;35.13;;;9.93;;
71475;SDS011;59286;59.274;17.974;2024-02-21T01:48:36;33.05;;;8.93;;
71475;SDS011;59286;59.274;17.974;2024-02-21T01:51:01;51.85;;;10.93;;
71475;SDS011;59286;59.274;17.974;2024-02-21T01:53:33;60.15;;;11.07;;
71475;SDS011;59286;59.274;17.974;2024-02-21T01:55:59;58.22;;;12.25;;
71475;SDS011;59286;59.274;17.974;2024-02-21T01:58:25;44.65;;;10.63;;
71475;SDS011;59286;59.274;17.974;2024-02-21T02:00:50;41.38;;;11.32;;
71475;SDS011;59286;59.274;17.974;2024-02-21T02:03:16;61.83;;;13.85;;
71475;SDS011;59286;59.274;17.974;2024-02-21T02:08:11;57.85;;;14.73;;
71475;SDS011;59286;59.274;17.974;2024-02-21T02:10:37;110.93;;;18.90;;
71475;SDS011;59286;59.274;17.974;2024-02-21T02:13:02;60.53;;;14.38;;
71475;SDS011;59286;59.274;17.974;2024-02-21T02:15:37;75.38;;;15.23;;
71475;SDS011;59286;59.274;17.974;2024-02-21T02:18:02;92.55;;;17.33;;
71475;SDS011;59286;59.274;17.974;2024-02-21T02:20:27;42.55;;;13.43;;
71475;SDS011;59286;59.274;17.974;2024-02-21T02:22:52;41.42;;;13.88;;
71475;SDS011;59286;59.274;17.974;2024-02-21T02:25:18;47.45;;;15.02;;
71475;SDS011;59286;59.274;17.974;2024-02-21T02:27:43;41.90;;;14.95;;
71475;SDS011;59286;59.274;17.974;2024-02-21T02:30:10;35.03;;;14.10;;
71475;SDS011;59286;59.274;17.974;2024-02-21T02:32:35;55.60;;;16.45;;
71475;SDS011;59286;59.274;17.974;2024-02-21T02:35:01;25.85;;;12.40;;
71475;SDS011;59286;59.274;17.974;2024-02-21T02:37:26;32.10;;;12.80;;
71475;SDS011;59286;59.274;17.974;2024-02-21T02:39:51;40.28;;;14.68;;
71475;SDS011;59286;59.274;17.974;2024-02-21T02:42:16;31.98;;;12.93;;
71475;SDS011;59286;59.274;17.974;2024-02-21T02:44:41;24.88;;;12.63;;
71475;SDS011;59286;59.274;17.974;2024-02-21T02:47:06;15.38;;;9.52;;
71475;SDS011;59286;59.274;17.974;2024-02-21T02:49:33;27.48;;;12.45;;
71475;SDS011;59286;59.274;17.974;2024-02-21T02:51:58;25.38;;;12.25;;
71475;SDS011;59286;59.274;17.974;2024-02-21T02:54:23;21.33;;;10.63;;
71475;SDS011;59286;59.274;17.974;2024-02-21T02:56:49;13.52;;;8.65;;
71475;SDS011;59286;59.274;17.974;2024-02-21T02:59:14;24.30;;;11.27;;
71475;SDS011;59286;59.274;17.974;2024-02-21T03:01:39;16.23;;;9.32;;
71475;SDS011;59286;59.274;17.974;2024-02-21T03:04:05;16.02;;;8.85;;
71475;SDS011;59286;59.274;17.974;2024-02-21T03:06:30;16.98;;;8.55;;
71475;SDS011;59286;59.274;17.974;2024-02-21T03:08:55;13.73;;;7.80;;
71475;SDS011;59286;59.274;17.974;2024-02-21T03:11:21;12.40;;;6.80;;
71475;SDS011;59286;59.274;17.974;2024-02-21T03:13:53;14.63;;;6.63;;
71475;SDS011;59286;59.274;17.974;2024-02-21T03:16:19;12.43;;;7.07;;
71475;SDS011;59286;59.274;17.974;2024-02-21T03:18:44;10.68;;;6.18;;
71475;SDS011;59286;59.274;17.974;2024-02-21T03:21:09;12.30;;;6.45;;
71475;SDS011;59286;59.274;17.974;2024-02-21T03:23:34;7.22;;;5.22;;
71475;SDS011;59286;59.274;17.974;2024-02-21T03:26:00;9.48;;;5.65;;
71475;SDS011;59286;59.274;17.974;2024-02-21T03:28:25;9.10;;;5.43;;
71475;SDS011;59286;59.274;17.974;2024-02-21T03:30:50;6.43;;;4.57;;
71475;SDS011;59286;59.274;17.974;2024-02-21T03:33:15;6.35;;;4.32;;
71475;SDS011;59286;59.274;17.974;2024-02-21T03:35:40;8.07;;;5.40;;
71475;SDS011;59286;59.274;17.974;2024-02-21T03:38:06;5.82;;;4.55;;
71475;SDS011;59286;59.274;17.974;2024-02-21T03:40:31;6.35;;;4.32;;
71475;SDS011;59286;59.274;17.974;2024-02-21T03:42:56;7.40;;;4.60;;
71475;SDS011;59286;59.274;17.974;2024-02-21T03:45:21;8.15;;;4.70;;
71475;SDS011;59286;59.274;17.974;2024-02-21T03:47:47;6.80;;;4.65;;
71475;SDS011;59286;59.274;17.974;2024-02-21T03:50:12;8.23;;;5.07;;
71475;SDS011;59286;59.274;17.974;2024-02-21T03:52:37;6.85;;;4.63;;
71475;SDS011;59286;59.274;17.974;2024-02-21T03:55:02;8.20;;;4.40;;
71475;SDS011;59286;59.274;17.974;2024-02-21T03:57:27;10.55;;;4.85;;
71475;SDS011;59286;59.274;17.974;2024-02-21T03:59:53;10.35;;;4.50;;
71475;SDS011;59286;59.274;17.974;2024-02-21T04:02:18;10.52;;;4.18;;
71475;SDS011;59286;59.274;17.974;2024-02-21T04:04:44;7.60;;;4.40;;
71475;SDS011;59286;59.274;17.974;2024-02-21T04:07:12;9.43;;;4.57;;
71475;SDS011;59286;59.274;17.974;2024-02-21T04:09:37;10.20;;;4.78;;
71475;SDS011;59286;59.274;17.974;2024-02-21T04:12:02;11.27;;;4.40;;
71475;SDS011;59286;59.274;17.974;2024-02-21T04:14:28;12.13;;;4.85;;
71475;SDS011;59286;59.274;17.974;2024-02-21T04:16:53;7.05;;;3.45;;
71475;SDS011;59286;59.274;17.974;2024-02-21T04:19:18;9.90;;;4.90;;
71475;SDS011;59286;59.274;17.974;2024-02-21T04:21:43;7.57;;;3.75;;
71475;SDS011;59286;59.274;17.974;2024-02-21T04:24:09;8.68;;;4.65;;
71475;SDS011;59286;59.274;17.974;2024-02-21T04:26:34;7.22;;;3.92;;
71475;SDS011;59286;59.274;17.974;2024-02-21T04:29:00;7.68;;;4.25;;
71475;SDS011;59286;59.274;17.974;2024-02-21T04:31:25;9.80;;;3.83;;
71475;SDS011;59286;59.274;17.974;2024-02-21T04:33:50;8.20;;;4.47;;
71475;SDS011;59286;59.274;17.974;2024-02-21T04:36:16;9.73;;;4.70;;
71475;SDS011;59286;59.274;17.974;2024-02-21T04:38:41;9.52;;;4.55;;
71475;SDS011;59286;59.274;17.974;2024-02-21T04:41:06;7.80;;;4.72;;
71475;SDS011;59286;59.274;17.974;2024-02-21T04:43:31;6.22;;;4.13;;
71475;SDS011;59286;59.274;17.974;2024-02-21T04:45:57;13.88;;;5.68;;
71475;SDS011;59286;59.274;17.974;2024-02-21T04:48:22;8.60;;;4.38;;
71475;SDS011;59286;59.274;17.974;2024-02-21T04:50:47;9.57;;;4.20;;
71475;SDS011;59286;59.274;17.974;2024-02-21T04:53:13;6.75;;;4.15;;
71475;SDS011;59286;59.274;17.974;2024-02-21T04:55:38;11.43;;;4.88;;
71475;SDS011;59286;59.274;17.974;2024-02-21T04:58:05;8.07;;;4.25;;
71475;SDS011;59286;59.274;17.974;2024-02-21T05:00:30;11.10;;;4.88;;
71475;SDS011;59286;59.274;17.974;2024-02-21T05:02:55;11.43;;;5.13;;
71475;SDS011;59286;59.274;17.974;2024-02-21T05:05:20;18.10;;;5.72;;
71475;SDS011;59286;59.274;17.974;2024-02-21T05:07:46;11.80;;;5.75;;
71475;SDS011;59286;59.274;17.974;2024-02-21T05:10:11;8.82;;;4.53;;
71475;SDS011;59286;59.274;17.974;2024-02-21T05:12:36;14.90;;;5.20;;
71475;SDS011;59286;59.274;17.974;2024-02-21T05:15:02;12.40;;;5.25;;
71475;SDS011;59286;59.274;17.974;2024-02-21T05:17:28;12.13;;;4.75;;
71475;SDS011;59286;59.274;17.974;2024-02-21T05:19:53;9.82;;;4.85;;
71475;SDS011;59286;59.274;17.974;2024-02-21T05:22:18;9.85;;;4.75;;
71475;SDS011;59286;59.274;17.974;2024-02-21T05:24:43;12.50;;;4.90;;
71475;SDS011;59286;59.274;17.974;2024-02-21T05:27:08;9.52;;;4.60;;
71475;SDS011;59286;59.274;17.974;2024-02-21T05:29:34;13.20;;;5.78;;
71475;SDS011;59286;59.274;17.974;2024-02-21T05:31:59;12.50;;;5.47;;
71475;SDS011;59286;59.274;17.974;2024-02-21T05:34:25;11.07;;;4.80;;
71475;SDS011;59286;59.274;17.974;2024-02-21T05:36:50;17.58;;;5.90;;
71475;SDS011;59286;59.274;17.974;2024-02-21T05:39:16;10.23;;;4.85;;
71475;SDS011;59286;59.274;17.974;2024-02-21T05:41:42;16.70;;;6.35;;
71475;SDS011;59286;59.274;17.974;2024-02-21T05:44:07;17.98;;;6.65;;
71475;SDS011;59286;59.274;17.974;2024-02-21T05:46:32;9.43;;;4.35;;
71475;SDS011;59286;59.274;17.974;2024-02-21T05:48:57;16.20;;;6.57;;
71475;SDS011;59286;59.274;17.974;2024-02-21T05:51:23;8.82;;;4.80;;
71475;SDS011;59286;59.274;17.974;2024-02-21T05:53:48;12.18;;;5.68;;
71475;SDS011;59286;59.274;17.974;2024-02-21T05:56:13;18.17;;;6.72;;
71475;SDS011;59286;59.274;17.974;2024-02-21T05:58:39;18.90;;;6.65;;
71475;SDS011;59286;59.274;17.974;2024-02-21T06:01:04;15.95;;;5.75;;
71475;SDS011;59286;59.274;17.974;2024-02-21T06:03:31;21.55;;;8.95;;
71475;SDS011;59286;59.274;17.974;2024-02-21T06:05:57;23.90;;;8.93;;
71475;SDS011;59286;59.274;17.974;2024-02-21T06:08:23;18.23;;;8.13;;
71475;SDS011;59286;59.274;17.974;2024-02-21T06:10:48;23.58;;;8.65;;
71475;SDS011;59286;59.274;17.974;2024-02-21T06:13:13;18.42;;;7.45;;
71475;SDS011;59286;59.274;17.974;2024-02-21T06:15:38;35.95;;;11.15;;
71475;SDS011;59286;59.274;17.974;2024-02-21T06:18:04;29.70;;;9.63;;
71475;SDS011;59286;59.274;17.974;2024-02-21T06:20:29;25.85;;;8.82;;
71475;SDS011;59286;59.274;17.974;2024-02-21T06:22:54;41.17;;;12.23;;
71475;SDS011;59286;59.274;17.974;2024-02-21T06:25:19;18.15;;;8.35;;
71475;SDS011;59286;59.274;17.974;2024-02-21T06:27:45;24.77;;;9.13;;
71475;SDS011;59286;59.274;17.974;2024-02-21T06:30:10;30.65;;;11.75;;
71475;SDS011;59286;59.274;17.974;2024-02-21T06:32:35;30.73;;;10.63;;
71475;SDS011;59286;59.274;17.974;2024-02-21T06:35:00;19.73;;;8.18;;
71475;SDS011;59286;59.274;17.974;2024-02-21T06:37:26;34.28;;;10.70;;
71475;SDS011;59286;59.274;17.974;2024-02-21T06:39:52;34.35;;;11.25;;
71475;SDS011;59286;59.274;17.974;2024-02-21T06:42:17;42.30;;;12.27;;
71475;SDS011;59286;59.274;17.974;2024-02-21T06:44:43;40.25;;;11.48;;
71475;SDS011;59286;59.274;17.974;2024-02-21T06:47:09;21.27;;;9.30;;
71475;SDS011;59286;59.274;17.974;2024-02-21T06:49:34;28.25;;;9.38;;
71475;SDS011;59286;59.274;17.974;2024-02-21T06:51:59;34.55;;;9.10;;
71475;SDS011;59286;59.274;17.974;2024-02-21T06:54:24;28.85;;;9.43;;
71475;SDS011;59286;59.274;17.974;2024-02-21T06:56:50;38.55;;;11.48;;
71475;SDS011;59286;59.274;17.974;2024-02-21T06:59:15;36.20;;;11.68;;
71475;SDS011;59286;59.274;17.974;2024-02-21T07:01:44;36.83;;;10.73;;
71475;SDS011;59286;59.274;17.974;2024-02-21T07:04:09;30.67;;;9.70;;
71475;SDS011;59286;59.274;17.974;2024-02-21T07:06:35;38.95;;;10.48;;
71475;SDS011;59286;59.274;17.974;2024-02-21T07:09:00;36.17;;;10.23;;
71475;SDS011;59286;59.274;17.974;2024-02-21T07:11:25;27.05;;;9.65;;
71475;SDS011;59286;59.274;17.974;2024-02-21T07:13:50;38.03;;;10.68;;
71475;SDS011;59286;59.274;17.974;2024-02-21T07:16:16;45.38;;;12.82;;
71475;SDS011;59286;59.274;17.974;2024-02-21T07:18:41;63.10;;;15.15;;
71475;SDS011;59286;59.274;17.974;2024-02-21T07:21:06;52.28;;;12.85;;
71475;SDS011;59286;59.274;17.974;2024-02-21T07:23:32;53.35;;;12.57;;
71475;SDS011;59286;59.274;17.974;2024-02-21T07:25:57;54.03;;;11.98;;
71475;SDS011;59286;59.274;17.974;2024-02-21T07:28:22;77.95;;;11.65;;
71475;SDS011;59286;59.274;17.974;2024-02-21T07:30:47;120.28;;;16.63;;
71475;SDS011;59286;59.274;17.974;2024-02-21T07:33:13;73.97;;;12.27;;
71475;SDS011;59286;59.274;17.974;2024-02-21T07:35:38;69.38;;;12.05;;
71475;SDS011;59286;59.274;17.974;2024-02-21T07:38:05;91.65;;;14.52;;
71475;SDS011;59286;59.274;17.974;2024-02-21T07:40:31;141.13;;;15.57;;
71475;SDS011;59286;59.274;17.974;2024-02-21T07:42:56;94.32;;;13.65;;
71475;SDS011;59286;59.274;17.974;2024-02-21T07:45:21;157.82;;;15.38;;
71475;SDS011;59286;59.274;17.974;2024-02-21T07:47:48;163.35;;;14.52;;
71475;SDS011;59286;59.274;17.974;2024-02-21T07:50:14;94.03;;;12.15;;
71475;SDS011;59286;59.274;17.974;2024-02-21T07:52:39;101.85;;;13.57;;
71475;SDS011;59286;59.274;17.974;2024-02-21T07:55:04;126.57;;;15.90;;
71475;SDS011;59286;59.274;17.974;2024-02-21T07:57:30;132.98;;;14.90;;
71475;SDS011;59286;59.274;17.974;2024-02-21T07:59:55;72.45;;;11.32;;
71475;SDS011;59286;59.274;17.974;2024-02-21T08:02:20;86.80;;;12.20;;
71475;SDS011;59286;59.274;17.974;2024-02-21T08:04:46;159.27;;;15.85;;
71475;SDS011;59286;59.274;17.974;2024-02-21T08:07:11;53.20;;;10.30;;
71475;SDS011;59286;59.274;17.974;2024-02-21T08:09:36;109.38;;;14.15;;
71475;SDS011;59286;59.274;17.974;2024-02-21T08:12:04;229.95;;;19.67;;
71475;SDS011;59286;59.274;17.974;2024-02-21T08:14:30;59.78;;;9.90;;
71475;SDS011;59286;59.274;17.974;2024-02-21T08:16:55;123.13;;;17.45;;
71475;SDS011;59286;59.274;17.974;2024-02-21T08:19:21;130.82;;;16.83;;
71475;SDS011;59286;59.274;17.974;2024-02-21T08:21:46;60.53;;;12.35;;
71475;SDS011;59286;59.274;17.974;2024-02-21T08:24:12;72.32;;;13.50;;
71475;SDS011;59286;59.274;17.974;2024-02-21T08:26:39;72.88;;;15.02;;
71475;SDS011;59286;59.274;17.974;2024-02-21T08:29:05;80.25;;;14.65;;
71475;SDS011;59286;59.274;17.974;2024-02-21T08:31:30;66.32;;;12.75;;
71475;SDS011;59286;59.274;17.974;2024-02-21T08:33:59;44.33;;;9.75;;
71475;SDS011;59286;59.274;17.974;2024-02-21T08:36:28;55.80;;;11.70;;
71475;SDS011;59286;59.274;17.974;2024-02-21T08:38:54;42.15;;;11.07;;
71475;SDS011;59286;59.274;17.974;2024-02-21T08:41:19;36.45;;;8.70;;
71475;SDS011;59286;59.274;17.974;2024-02-21T08:43:46;30.35;;;9.00;;
71475;SDS011;59286;59.274;17.974;2024-02-21T08:46:12;28.33;;;8.13;;
71475;SDS011;59286;59.274;17.974;2024-02-21T08:48:37;45.33;;;11.18;;
71475;SDS011;59286;59.274;17.974;2024-02-21T08:51:02;35.72;;;9.60;;
71475;SDS011;59286;59.274;17.974;2024-02-21T08:53:27;43.53;;;10.73;;
71475;SDS011;59286;59.274;17.974;2024-02-21T08:55:53;45.42;;;10.10;;
71475;SDS011;59286;59.274;17.974;2024-02-21T08:58:18;23.08;;;8.57;;
71475;SDS011;59286;59.274;17.974;2024-02-21T09:00:44;32.05;;;9.90;;
71475;SDS011;59286;59.274;17.974;2024-02-21T09:03:09;24.33;;;7.55;;
71475;SDS011;59286;59.274;17.974;2024-02-21T09:05:34;35.60;;;9.25;;
71475;SDS011;59286;59.274;17.974;2024-02-21T09:08:00;25.55;;;7.72;;
71475;SDS011;59286;59.274;17.974;2024-02-21T09:10:25;28.40;;;7.28;;
71475;SDS011;59286;59.274;17.974;2024-02-21T09:12:50;24.40;;;8.30;;
71475;SDS011;59286;59.274;17.974;2024-02-21T09:15:15;39.13;;;11.50;;
71475;SDS011;59286;59.274;17.974;2024-02-21T09:17:40;22.50;;;8.15;;
71475;SDS011;59286;59.274;17.974;2024-02-21T09:20:06;33.17;;;9.32;;
71475;SDS011;59286;59.274;17.974;2024-02-21T09:22:32;45.25;;;11.13;;
71475;SDS011;59286;59.274;17.974;2024-02-21T09:24:59;22.48;;;8.02;;
71475;SDS011;59286;59.274;17.974;2024-02-21T09:27:25;30.15;;;9.20;;
71475;SDS011;59286;59.274;17.974;2024-02-21T09:29:50;31.50;;;9.68;;
71475;SDS011;59286;59.274;17.974;2024-02-21T09:32:15;22.60;;;7.32;;
71475;SDS011;59286;59.274;17.974;2024-02-21T09:34:41;23.73;;;9.70;;
71475;SDS011;59286;59.274;17.974;2024-02-21T09:37:06;29.40;;;8.70;;
71475;SDS011;59286;59.274;17.974;2024-02-21T09:39:31;21.65;;;7.13;;
71475;SDS011;59286;59.274;17.974;2024-02-21T09:41:58;15.48;;;5.75;;
71475;SDS011;59286;59.274;17.974;2024-02-21T09:44:24;19.23;;;6.90;;
71475;SDS011;59286;59.274;17.974;2024-02-21T09:46:55;14.10;;;6.22;;
71475;SDS011;59286;59.274;17.974;2024-02-21T09:49:32;18.30;;;6.68;;
71475;SDS011;59286;59.274;17.974;2024-02-21T09:52:00;21.65;;;7.05;;
71475;SDS011;59286;59.274;17.974;2024-02-21T09:54:25;17.85;;;6.43;;
71475;SDS011;59286;59.274;17.974;2024-02-21T09:56:52;14.45;;;6.00;;
71475;SDS011;59286;59.274;17.974;2024-02-21T09:59:18;13.00;;;6.30;;
71475;SDS011;59286;59.274;17.974;2024-02-21T10:01:43;18.42;;;6.90;;
71475;SDS011;59286;59.274;17.974;2024-02-21T10:04:09;17.30;;;8.02;;
71475;SDS011;59286;59.274;17.974;2024-02-21T10:06:34;13.13;;;5.68;;
71475;SDS011;59286;59.274;17.974;2024-02-21T10:09:02;13.38;;;6.78;;
71475;SDS011;59286;59.274;17.974;2024-02-21T10:11:27;15.32;;;6.47;;
71475;SDS011;59286;59.274;17.974;2024-02-21T10:14:05;19.77;;;6.93;;
71475;SDS011;59286;59.274;17.974;2024-02-21T10:16:30;13.30;;;6.95;;
71475;SDS011;59286;59.274;17.974;2024-02-21T10:18:56;17.65;;;6.25;;
71475;SDS011;59286;59.274;17.974;2024-02-21T10:21:21;16.52;;;6.78;;
71475;SDS011;59286;59.274;17.974;2024-02-21T10:23:49;12.90;;;5.10;;
71475;SDS011;59286;59.274;17.974;2024-02-21T10:26:16;16.00;;;5.90;;
71475;SDS011;59286;59.274;17.974;2024-02-21T10:28:41;12.77;;;5.88;;
71475;SDS011;59286;59.274;17.974;2024-02-21T10:31:11;12.77;;;6.22;;
71475;SDS011;59286;59.274;17.974;2024-02-21T10:33:36;15.15;;;5.80;;
71475;SDS011;59286;59.274;17.974;2024-02-21T10:36:08;8.73;;;4.85;;
71475;SDS011;59286;59.274;17.974;2024-02-21T10:38:35;11.77;;;5.50;;
71475;SDS011;59286;59.274;17.974;2024-02-21T10:41:00;15.52;;;7.03;;
71475;SDS011;59286;59.274;17.974;2024-02-21T10:43:28;14.13;;;6.13;;
71475;SDS011;59286;59.274;17.974;2024-02-21T10:45:55;9.00;;;5.30;;
71475;SDS011;59286;59.274;17.974;2024-02-21T10:48:22;13.15;;;7.25;;
71475;SDS011;59286;59.274;17.974;2024-02-21T10:50:57;11.50;;;5.90;;
71475;SDS011;59286;59.274;17.974;2024-02-21T10:56:12;12.45;;;5.10;;
71475;SDS011;59286;59.274;17.974;2024-02-21T10:58:40;18.70;;;7.13;;
71475;SDS011;59286;59.274;17.974;2024-02-21T11:01:06;8.93;;;5.03;;
71475;SDS011;59286;59.274;17.974;2024-02-21T11:03:32;16.75;;;4.97;;
71475;SDS011;59286;59.274;17.974;2024-02-21T11:05:58;13.30;;;5.78;;
71475;SDS011;59286;59.274;17.974;2024-02-21T11:08:23;10.57;;;5.47;;
71475;SDS011;59286;59.274;17.974;2024-02-21T11:10:50;15.23;;;6.53;;
71475;SDS011;59286;59.274;17.974;2024-02-21T11:13:15;19.95;;;6.50;;
71475;SDS011;59286;59.274;17.974;2024-02-21T11:15:40;13.30;;;6.40;;
71475;SDS011;59286;59.274;17.974;2024-02-21T11:18:05;12.88;;;6.22;;
71475;SDS011;59286;59.274;17.974;2024-02-21T11:20:36;9.95;;;5.55;;
71475;SDS011;59286;59.274;17.974;2024-02-21T11:23:02;13.82;;;4.97;;
71475;SDS011;59286;59.274;17.974;2024-02-21T11:25:28;18.40;;;6.40;;
71475;SDS011;59286;59.274;17.974;2024-02-21T11:28:01;16.67;;;7.30;;
71475;SDS011;59286;59.274;17.974;2024-02-21T11:30:27;15.25;;;6.13;;
71475;SDS011;59286;59.274;17.974;2024-02-21T11:32:59;8.40;;;4.70;;
71475;SDS011;59286;59.274;17.974;2024-02-21T11:35:24;22.80;;;8.85;;
71475;SDS011;59286;59.274;17.974;2024-02-21T11:37:49;14.60;;;5.72;;
71475;SDS011;59286;59.274;17.974;2024-02-21T11:40:14;10.50;;;5.22;;
71475;SDS011;59286;59.274;17.974;2024-02-21T11:42:40;12.35;;;5.20;;
71475;SDS011;59286;59.274;17.974;2024-02-21T11:45:05;14.40;;;6.57;;
71475;SDS011;59286;59.274;17.974;2024-02-21T11:47:31;12.55;;;6.30;;
71475;SDS011;59286;59.274;17.974;2024-02-21T11:49:56;12.73;;;6.38;;
71475;SDS011;59286;59.274;17.974;2024-02-21T11:52:22;16.38;;;5.90;;
71475;SDS011;59286;59.274;17.974;2024-02-21T11:54:49;11.50;;;6.65;;
71475;SDS011;59286;59.274;17.974;2024-02-21T11:57:15;21.27;;;8.63;;
71475;SDS011;59286;59.274;17.974;2024-02-21T11:59:40;11.65;;;5.75;;
71475;SDS011;59286;59.274;17.974;2024-02-21T12:02:06;13.82;;;7.90;;
71475;SDS011;59286;59.274;17.974;2024-02-21T12:04:31;26.02;;;8.90;;
71475;SDS011;59286;59.274;17.974;2024-02-21T12:06:57;14.65;;;7.00;;
71475;SDS011;59286;59.274;17.974;2024-02-21T12:09:23;8.93;;;6.47;;
71475;SDS011;59286;59.274;17.974;2024-02-21T12:12:10;8.27;;;6.22;;
71475;SDS011;59286;59.274;17.974;2024-02-21T12:14:34;10.23;;;5.50;;
71475;SDS011;59286;59.274;17.974;2024-02-21T12:17:00;7.45;;;4.85;;
71475;SDS011;59286;59.274;17.974;2024-02-21T12:19:26;11.68;;;6.05;;
71475;SDS011;59286;59.274;17.974;2024-02-21T12:21:53;12.32;;;7.22;;
71475;SDS011;59286;59.274;17.974;2024-02-21T12:24:23;10.63;;;5.78;;
71475;SDS011;59286;59.274;17.974;2024-02-21T12:26:49;8.10;;;4.53;;
71475;SDS011;59286;59.274;17.974;2024-02-21T12:29:14;6.28;;;4.20;;
71475;SDS011;59286;59.274;17.974;2024-02-21T12:31:40;15.20;;;7.10;;
71475;SDS011;59286;59.274;17.974;2024-02-21T12:34:05;7.65;;;4.20;;
71475;SDS011;59286;59.274;17.974;2024-02-21T12:36:31;6.30;;;4.80;;
71475;SDS011;59286;59.274;17.974;2024-02-21T12:38:56;10.55;;;6.78;;
71475;SDS011;59286;59.274;17.974;2024-02-21T12:41:21;7.60;;;4.95;;
71475;SDS011;59286;59.274;17.974;2024-02-21T12:43:46;5.90;;;4.40;;
71475;SDS011;59286;59.274;17.974;2024-02-21T12:46:12;6.47;;;4.55;;
71475;SDS011;59286;59.274;17.974;2024-02-21T12:48:37;4.28;;;3.30;;
71475;SDS011;59286;59.274;17.974;2024-02-21T12:51:02;10.77;;;6.40;;
71475;SDS011;59286;59.274;17.974;2024-02-21T12:53:29;8.40;;;5.45;;
71475;SDS011;59286;59.274;17.974;2024-02-21T12:55:55;9.70;;;6.10;;
71475;SDS011;59286;59.274;17.974;2024-02-21T12:58:21;7.20;;;5.60;;
71475;SDS011;59286;59.274;17.974;2024-02-21T13:00:46;7.18;;;4.95;;
71475;SDS011;59286;59.274;17.974;2024-02-21T13:03:12;9.23;;;6.57;;
71475;SDS011;59286;59.274;17.974;2024-02-21T13:05:37;7.90;;;5.85;;
71475;SDS011;59286;59.274;17.974;2024-02-21T13:08:03;4.45;;;3.45;;
71475;SDS011;59286;59.274;17.974;2024-02-21T13:10:29;12.45;;;7.07;;
71475;SDS011;59286;59.274;17.974;2024-02-21T13:12:54;14.05;;;7.95;;
71475;SDS011;59286;59.274;17.974;2024-02-21T13:15:19;11.75;;;6.50;;
71475;SDS011;59286;59.274;17.974;2024-02-21T13:17:44;6.72;;;4.63;;
71475;SDS011;59286;59.274;17.974;2024-02-21T13:20:10;5.40;;;3.92;;
71475;SDS011;59286;59.274;17.974;2024-02-21T13:22:35;7.75;;;4.75;;
71475;SDS011;59286;59.274;17.974;2024-02-21T13:25:01;10.70;;;6.00;;
71475;SDS011;59286;59.274;17.974;2024-02-21T13:27:26;18.77;;;9.18;;
71475;SDS011;59286;59.274;17.974;2024-02-21T13:29:51;11.10;;;6.43;;
71475;SDS011;59286;59.274;17.974;2024-02-21T13:32:18;14.05;;;8.43;;
71475;SDS011;59286;59.274;17.974;2024-02-21T13:34:43;8.38;;;6.63;;
71475;SDS011;59286;59.274;17.974;2024-02-21T13:37:08;8.52;;;6.10;;
71475;SDS011;59286;59.274;17.974;2024-02-21T13:39:35;5.72;;;4.78;;
71475;SDS011;59286;59.274;17.974;2024-02-21T13:42:00;6.45;;;5.10;;
71475;SDS011;59286;59.274;17.974;2024-02-21T13:44:25;18.60;;;8.95;;
71475;SDS011;59286;59.274;17.974;2024-02-21T13:46:50;17.83;;;9.73;;
71475;SDS011;59286;59.274;17.974;2024-02-21T13:49:15;14.80;;;7.03;;
71475;SDS011;59286;59.274;17.974;2024-02-21T13:51:41;16.38;;;8.18;;
71475;SDS011;59286;59.274;17.974;2024-02-21T13:54:07;19.98;;;9.00;;
71475;SDS011;59286;59.274;17.974;2024-02-21T13:56:34;15.98;;;7.75;;
71475;SDS011;59286;59.274;17.974;2024-02-21T13:58:59;9.98;;;6.00;;
71475;SDS011;59286;59.274;17.974;2024-02-21T14:01:25;6.88;;;5.20;;
71475;SDS011;59286;59.274;17.974;2024-02-21T14:03:51;5.22;;;4.60;;
71475;SDS011;59286;59.274;17.974;2024-02-21T14:06:16;11.10;;;7.43;;
71475;SDS011;59286;59.274;17.974;2024-02-21T14:08:42;13.80;;;6.97;;
71475;SDS011;59286;59.274;17.974;2024-02-21T14:11:07;34.60;;;12.55;;
71475;SDS011;59286;59.274;17.974;2024-02-21T14:13:32;23.58;;;11.57;;
71475;SDS011;59286;59.274;17.974;2024-02-21T14:15:58;15.20;;;9.23;;
71475;SDS011;59286;59.274;17.974;2024-02-21T14:18:23;21.52;;;10.20;;